sensor_id;sensor_type;location;lat;lon;timestamp;P1;durP1;ratioP1;P2;durP2;ratioP2
35042;SDS011;21230;51.170;17.024;2022-07-04T13:34:21;5.20;;;4.43;;
35042;SDS011;21230;51.170;17.024;2022-07-04T13:36:47;8.23;;;4.40;;
35042;SDS011;21230;51.170;17.024;2022-07-04T13:39:12;8.50;;;4.60;;
35042;SDS011;21230;51.170;17.024;2022-07-04T13:41:38;5.90;;;3.90;;
35042;SDS011;21230;51.170;17.024;2022-07-04T13:44:05;4.20;;;3.92;;
35042;SDS011;21230;51.170;17.024;2022-07-04T13:46:32;4.20;;;3.85;;
35042;SDS011;21230;51.170;17.024;2022-07-04T13:49:03;4.90;;;4.18;;
35042;SDS011;21230;51.170;17.024;2022-07-04T13:51:30;4.38;;;3.75;;
35042;SDS011;21230;51.170;17.024;2022-07-04T13:53:56;4.15;;;3.75;;
35042;SDS011;21230;51.170;17.024;2022-07-04T13:56:22;4.85;;;4.45;;
35042;SDS011;21230;51.170;17.024;2022-07-04T13:58:48;6.00;;;3.85;;
35042;SDS011;21230;51.170;17.024;2022-07-04T14:01:14;5.40;;;3.92;;
35042;SDS011;21230;51.170;17.024;2022-07-04T14:03:42;7.55;;;3.60;;
35042;SDS011;21230;51.170;17.024;2022-07-04T14:06:09;4.78;;;4.38;;
35042;SDS011;21230;51.170;17.024;2022-07-04T14:08:35;4.88;;;4.18;;
35042;SDS011;21230;51.170;17.024;2022-07-04T14:11:04;7.00;;;3.65;;
35042;SDS011;21230;51.170;17.024;2022-07-04T14:13:30;7.75;;;3.42;;
35042;SDS011;21230;51.170;17.024;2022-07-04T14:15:57;4.45;;;3.15;;
35042;SDS011;21230;51.170;17.024;2022-07-04T14:18:28;3.92;;;3.58;;
35042;SDS011;21230;51.170;17.024;2022-07-04T14:20:53;6.43;;;3.75;;
35042;SDS011;21230;51.170;17.024;2022-07-04T14:23:23;3.88;;;3.58;;
35042;SDS011;21230;51.170;17.024;2022-07-04T14:26:14;4.90;;;3.90;;
35042;SDS011;21230;51.170;17.024;2022-07-04T14:28:41;5.50;;;4.07;;
35042;SDS011;21230;51.170;17.024;2022-07-04T14:33:35;6.25;;;3.38;;
35042;SDS011;21230;51.170;17.024;2022-07-04T14:36:01;3.38;;;3.08;;
35042;SDS011;21230;51.170;17.024;2022-07-04T14:38:28;11.33;;;4.07;;
35042;SDS011;21230;51.170;17.024;2022-07-04T14:40:54;8.02;;;3.75;;
35042;SDS011;21230;51.170;17.024;2022-07-04T14:43:20;5.32;;;3.08;;
35042;SDS011;21230;51.170;17.024;2022-07-04T14:45:46;5.28;;;3.22;;
35042;SDS011;21230;51.170;17.024;2022-07-04T14:48:15;5.72;;;3.65;;
35042;SDS011;21230;51.170;17.024;2022-07-04T14:50:41;5.15;;;3.28;;
35042;SDS011;21230;51.170;17.024;2022-07-04T14:53:11;8.75;;;3.67;;
35042;SDS011;21230;51.170;17.024;2022-07-04T14:55:37;6.28;;;3.67;;
35042;SDS011;21230;51.170;17.024;2022-07-04T14:58:03;8.60;;;3.55;;
35042;SDS011;21230;51.170;17.024;2022-07-04T15:00:29;3.75;;;3.45;;
35042;SDS011;21230;51.170;17.024;2022-07-04T15:02:54;3.85;;;3.55;;
35042;SDS011;21230;51.170;17.024;2022-07-04T15:05:20;10.65;;;4.20;;
35042;SDS011;21230;51.170;17.024;2022-07-04T15:07:46;6.43;;;4.05;;
35042;SDS011;21230;51.170;17.024;2022-07-04T15:10:12;5.85;;;3.45;;
35042;SDS011;21230;51.170;17.024;2022-07-04T15:12:38;3.80;;;3.33;;
35042;SDS011;21230;51.170;17.024;2022-07-04T15:15:03;5.30;;;3.65;;
35042;SDS011;21230;51.170;17.024;2022-07-04T15:17:30;4.15;;;3.83;;
35042;SDS011;21230;51.170;17.024;2022-07-04T15:19:55;3.70;;;3.40;;
35042;SDS011;21230;51.170;17.024;2022-07-04T15:22:40;7.07;;;3.85;;
35042;SDS011;21230;51.170;17.024;2022-07-04T15:25:25;5.90;;;3.92;;
35042;SDS011;21230;51.170;17.024;2022-07-04T15:27:51;4.32;;;3.42;;
35042;SDS011;21230;51.170;17.024;2022-07-04T15:30:17;6.38;;;3.83;;
35042;SDS011;21230;51.170;17.024;2022-07-04T15:32:43;6.78;;;3.67;;
35042;SDS011;21230;51.170;17.024;2022-07-04T15:35:09;5.40;;;3.72;;
35042;SDS011;21230;51.170;17.024;2022-07-04T15:37:35;8.13;;;3.97;;
35042;SDS011;21230;51.170;17.024;2022-07-04T15:40:01;4.80;;;3.90;;
35042;SDS011;21230;51.170;17.024;2022-07-04T15:42:28;4.90;;;3.97;;
35042;SDS011;21230;51.170;17.024;2022-07-04T15:44:56;5.93;;;3.80;;
35042;SDS011;21230;51.170;17.024;2022-07-04T15:47:22;4.03;;;3.72;;
35042;SDS011;21230;51.170;17.024;2022-07-04T15:49:48;4.28;;;3.88;;
35042;SDS011;21230;51.170;17.024;2022-07-04T15:52:14;13.38;;;4.18;;
35042;SDS011;21230;51.170;17.024;2022-07-04T15:54:40;9.05;;;4.00;;
35042;SDS011;21230;51.170;17.024;2022-07-04T15:57:06;9.38;;;3.90;;
35042;SDS011;21230;51.170;17.024;2022-07-04T15:59:32;8.82;;;4.13;;
35042;SDS011;21230;51.170;17.024;2022-07-04T16:01:58;4.75;;;3.88;;
35042;SDS011;21230;51.170;17.024;2022-07-04T16:04:27;3.80;;;3.53;;
35042;SDS011;21230;51.170;17.024;2022-07-04T16:06:53;4.50;;;3.60;;
35042;SDS011;21230;51.170;17.024;2022-07-04T16:09:18;3.97;;;3.58;;
35042;SDS011;21230;51.170;17.024;2022-07-04T16:11:44;4.80;;;3.75;;
35042;SDS011;21230;51.170;17.024;2022-07-04T16:14:15;4.85;;;3.97;;
35042;SDS011;21230;51.170;17.024;2022-07-04T16:16:41;4.85;;;3.63;;
35042;SDS011;21230;51.170;17.024;2022-07-04T16:19:07;7.10;;;3.80;;
35042;SDS011;21230;51.170;17.024;2022-07-04T16:21:35;6.25;;;3.88;;
35042;SDS011;21230;51.170;17.024;2022-07-04T16:24:01;9.40;;;4.13;;
35042;SDS011;21230;51.170;17.024;2022-07-04T16:26:27;9.15;;;4.22;;
35042;SDS011;21230;51.170;17.024;2022-07-04T16:28:53;4.47;;;3.75;;
35042;SDS011;21230;51.170;17.024;2022-07-04T16:31:19;7.43;;;3.72;;
35042;SDS011;21230;51.170;17.024;2022-07-04T16:33:48;4.20;;;3.85;;
35042;SDS011;21230;51.170;17.024;2022-07-04T16:36:14;5.00;;;3.55;;
35042;SDS011;21230;51.170;17.024;2022-07-04T16:38:40;3.17;;;2.97;;
35042;SDS011;21230;51.170;17.024;2022-07-04T16:41:06;6.20;;;3.15;;
35042;SDS011;21230;51.170;17.024;2022-07-04T16:43:32;4.72;;;4.05;;
35042;SDS011;21230;51.170;17.024;2022-07-04T16:46:01;8.13;;;4.30;;
35042;SDS011;21230;51.170;17.024;2022-07-04T16:48:27;5.43;;;4.07;;
35042;SDS011;21230;51.170;17.024;2022-07-04T16:50:53;8.35;;;4.22;;
35042;SDS011;21230;51.170;17.024;2022-07-04T16:53:18;9.18;;;4.13;;
35042;SDS011;21230;51.170;17.024;2022-07-04T16:55:44;7.75;;;4.07;;
35042;SDS011;21230;51.170;17.024;2022-07-04T16:58:10;4.30;;;3.90;;
35042;SDS011;21230;51.170;17.024;2022-07-04T17:00:36;7.40;;;4.38;;
35042;SDS011;21230;51.170;17.024;2022-07-04T17:03:02;6.30;;;4.15;;
35042;SDS011;21230;51.170;17.024;2022-07-04T17:05:28;6.05;;;3.83;;
35042;SDS011;21230;51.170;17.024;2022-07-04T17:07:54;4.82;;;3.83;;
35042;SDS011;21230;51.170;17.024;2022-07-04T17:10:20;4.53;;;4.03;;
35042;SDS011;21230;51.170;17.024;2022-07-04T17:12:46;5.13;;;4.47;;
35042;SDS011;21230;51.170;17.024;2022-07-04T17:24:55;4.57;;;4.18;;
35042;SDS011;21230;51.170;17.024;2022-07-04T17:27:23;5.97;;;4.00;;
35042;SDS011;21230;51.170;17.024;2022-07-04T17:29:49;5.65;;;4.28;;
35042;SDS011;21230;51.170;17.024;2022-07-04T17:32:15;4.88;;;4.47;;
35042;SDS011;21230;51.170;17.024;2022-07-04T17:34:44;7.03;;;4.30;;
35042;SDS011;21230;51.170;17.024;2022-07-04T17:37:10;12.48;;;5.05;;
35042;SDS011;21230;51.170;17.024;2022-07-04T17:39:40;5.50;;;4.57;;
35042;SDS011;21230;51.170;17.024;2022-07-04T20:26:05;17.27;;;12.30;;
35042;SDS011;21230;51.170;17.024;2022-07-04T20:28:31;15.63;;;14.00;;
35042;SDS011;21230;51.170;17.024;2022-07-04T20:30:57;14.70;;;13.00;;
35042;SDS011;21230;51.170;17.024;2022-07-04T20:33:23;12.98;;;11.38;;
35042;SDS011;21230;51.170;17.024;2022-07-04T20:35:49;13.00;;;11.70;;
35042;SDS011;21230;51.170;17.024;2022-07-04T20:38:15;19.25;;;12.90;;
35042;SDS011;21230;51.170;17.024;2022-07-04T20:40:40;16.52;;;13.73;;
35042;SDS011;21230;51.170;17.024;2022-07-04T20:43:06;15.18;;;13.77;;
35042;SDS011;21230;51.170;17.024;2022-07-04T20:45:32;16.23;;;14.57;;
35042;SDS011;21230;51.170;17.024;2022-07-04T20:47:58;18.77;;;13.43;;
35042;SDS011;21230;51.170;17.024;2022-07-04T20:50:30;14.45;;;12.73;;
35042;SDS011;21230;51.170;17.024;2022-07-04T20:52:56;13.73;;;12.10;;
35042;SDS011;21230;51.170;17.024;2022-07-04T20:55:22;16.50;;;11.85;;
35042;SDS011;21230;51.170;17.024;2022-07-04T20:57:51;13.90;;;12.50;;
35042;SDS011;21230;51.170;17.024;2022-07-04T21:00:17;14.82;;;12.75;;
35042;SDS011;21230;51.170;17.024;2022-07-04T21:02:43;16.13;;;13.45;;
35042;SDS011;21230;51.170;17.024;2022-07-04T21:05:09;15.55;;;13.98;;
35042;SDS011;21230;51.170;17.024;2022-07-04T21:07:35;15.73;;;14.10;;
35042;SDS011;21230;51.170;17.024;2022-07-04T21:10:02;14.90;;;13.50;;
35042;SDS011;21230;51.170;17.024;2022-07-04T21:12:28;18.95;;;13.95;;
35042;SDS011;21230;51.170;17.024;2022-07-04T21:14:55;15.80;;;14.45;;
35042;SDS011;21230;51.170;17.024;2022-07-04T21:17:21;15.60;;;13.85;;
35042;SDS011;21230;51.170;17.024;2022-07-04T21:19:47;14.50;;;13.10;;
35042;SDS011;21230;51.170;17.024;2022-07-04T21:22:13;15.45;;;13.93;;
35042;SDS011;21230;51.170;17.024;2022-07-04T21:24:40;15.95;;;14.23;;
35042;SDS011;21230;51.170;17.024;2022-07-04T21:27:07;15.23;;;13.93;;
35042;SDS011;21230;51.170;17.024;2022-07-04T21:29:32;16.67;;;15.15;;
35042;SDS011;21230;51.170;17.024;2022-07-04T21:31:58;15.77;;;14.20;;
35042;SDS011;21230;51.170;17.024;2022-07-04T21:34:27;14.93;;;13.23;;
35042;SDS011;21230;51.170;17.024;2022-07-04T21:36:53;14.43;;;13.00;;
35042;SDS011;21230;51.170;17.024;2022-07-04T21:39:19;13.02;;;11.88;;
35042;SDS011;21230;51.170;17.024;2022-07-04T21:41:45;17.52;;;15.50;;
35042;SDS011;21230;51.170;17.024;2022-07-04T21:44:11;18.58;;;13.13;;
35042;SDS011;21230;51.170;17.024;2022-07-04T21:46:37;12.57;;;10.80;;
35042;SDS011;21230;51.170;17.024;2022-07-04T21:49:03;16.48;;;10.63;;
35042;SDS011;21230;51.170;17.024;2022-07-04T21:51:28;10.38;;;9.40;;
35042;SDS011;21230;51.170;17.024;2022-07-04T21:53:54;11.23;;;9.88;;
35042;SDS011;21230;51.170;17.024;2022-07-04T21:56:20;12.35;;;10.27;;
35042;SDS011;21230;51.170;17.024;2022-07-04T21:58:46;12.10;;;10.82;;
35042;SDS011;21230;51.170;17.024;2022-07-04T22:01:12;11.68;;;10.07;;
35042;SDS011;21230;51.170;17.024;2022-07-04T22:03:39;11.73;;;10.52;;
35042;SDS011;21230;51.170;17.024;2022-07-04T22:06:05;12.50;;;11.25;;
